sensor_id;sensor_type;location;lat;lon;timestamp;temperature;humidity
16154;DHT22;8182;55.648;13.208;2024-02-04T00:02:14;5.10;1.00
16154;DHT22;8182;55.648;13.208;2024-02-04T00:04:41;5.10;1.00
16154;DHT22;8182;55.648;13.208;2024-02-04T00:07:09;5.10;1.00
16154;DHT22;8182;55.648;13.208;2024-02-04T00:09:37;5.20;1.00
16154;DHT22;8182;55.648;13.208;2024-02-04T00:12:04;5.20;1.00
16154;DHT22;8182;55.648;13.208;2024-02-04T00:14:32;5.20;1.00
16154;DHT22;8182;55.648;13.208;2024-02-04T00:16:58;5.30;1.00
16154;DHT22;8182;55.648;13.208;2024-02-04T00:19:26;5.20;1.00
16154;DHT22;8182;55.648;13.208;2024-02-04T00:21:53;5.10;1.00
16154;DHT22;8182;55.648;13.208;2024-02-04T00:24:21;5.10;1.00
16154;DHT22;8182;55.648;13.208;2024-02-04T00:26:48;5.10;1.00
16154;DHT22;8182;55.648;13.208;2024-02-04T00:29:15;5.10;1.00
16154;DHT22;8182;55.648;13.208;2024-02-04T00:31:42;5.00;1.00
16154;DHT22;8182;55.648;13.208;2024-02-04T00:34:09;5.00;1.00
16154;DHT22;8182;55.648;13.208;2024-02-04T00:36:36;5.00;1.00
16154;DHT22;8182;55.648;13.208;2024-02-04T00:39:03;5.00;1.00
16154;DHT22;8182;55.648;13.208;2024-02-04T00:41:32;5.00;1.00
16154;DHT22;8182;55.648;13.208;2024-02-04T00:43:59;5.00;1.00
16154;DHT22;8182;55.648;13.208;2024-02-04T00:46:26;5.10;1.00
16154;DHT22;8182;55.648;13.208;2024-02-04T00:48:53;5.10;1.00
16154;DHT22;8182;55.648;13.208;2024-02-04T00:51:20;5.10;1.00
16154;DHT22;8182;55.648;13.208;2024-02-04T00:53:48;5.10;1.00
16154;DHT22;8182;55.648;13.208;2024-02-04T00:56:15;5.00;1.00
16154;DHT22;8182;55.648;13.208;2024-02-04T00:58:43;5.00;1.00
16154;DHT22;8182;55.648;13.208;2024-02-04T01:01:13;5.10;1.00
16154;DHT22;8182;55.648;13.208;2024-02-04T01:03:40;5.10;1.00
16154;DHT22;8182;55.648;13.208;2024-02-04T01:06:07;5.10;1.00
16154;DHT22;8182;55.648;13.208;2024-02-04T01:08:34;4.90;1.00
16154;DHT22;8182;55.648;13.208;2024-02-04T01:11:03;4.90;1.00
16154;DHT22;8182;55.648;13.208;2024-02-04T01:13:30;4.90;1.00
16154;DHT22;8182;55.648;13.208;2024-02-04T01:15:58;5.00;1.00
16154;DHT22;8182;55.648;13.208;2024-02-04T01:18:25;5.10;1.00
16154;DHT22;8182;55.648;13.208;2024-02-04T01:20:52;5.00;1.00
16154;DHT22;8182;55.648;13.208;2024-02-04T01:23:19;5.00;1.00
16154;DHT22;8182;55.648;13.208;2024-02-04T01:25:46;5.10;1.00
16154;DHT22;8182;55.648;13.208;2024-02-04T01:28:12;5.10;1.00
16154;DHT22;8182;55.648;13.208;2024-02-04T01:30:39;5.10;1.00
16154;DHT22;8182;55.648;13.208;2024-02-04T01:33:08;5.10;1.00
16154;DHT22;8182;55.648;13.208;2024-02-04T01:35:34;5.00;1.00
16154;DHT22;8182;55.648;13.208;2024-02-04T01:38:01;5.00;1.00
16154;DHT22;8182;55.648;13.208;2024-02-04T01:40:28;4.90;1.00
16154;DHT22;8182;55.648;13.208;2024-02-04T01:42:56;4.90;1.00
16154;DHT22;8182;55.648;13.208;2024-02-04T01:45:23;4.90;1.00
16154;DHT22;8182;55.648;13.208;2024-02-04T01:47:50;4.90;1.00
16154;DHT22;8182;55.648;13.208;2024-02-04T01:50:20;4.90;1.00
16154;DHT22;8182;55.648;13.208;2024-02-04T01:52:47;5.00;1.00
16154;DHT22;8182;55.648;13.208;2024-02-04T01:55:15;5.00;1.00
16154;DHT22;8182;55.648;13.208;2024-02-04T01:57:42;5.00;1.00
16154;DHT22;8182;55.648;13.208;2024-02-04T02:00:10;5.00;1.00
16154;DHT22;8182;55.648;13.208;2024-02-04T02:02:40;5.00;1.00
16154;DHT22;8182;55.648;13.208;2024-02-04T02:05:07;4.90;1.00
16154;DHT22;8182;55.648;13.208;2024-02-04T02:07:36;4.80;1.00
16154;DHT22;8182;55.648;13.208;2024-02-04T02:10:03;4.80;1.00
16154;DHT22;8182;55.648;13.208;2024-02-04T02:12:35;4.90;1.00
16154;DHT22;8182;55.648;13.208;2024-02-04T02:15:10;4.80;1.00
16154;DHT22;8182;55.648;13.208;2024-02-04T02:17:43;5.00;1.00
16154;DHT22;8182;55.648;13.208;2024-02-04T02:20:19;4.90;1.00
16154;DHT22;8182;55.648;13.208;2024-02-04T02:22:50;4.90;1.00
16154;DHT22;8182;55.648;13.208;2024-02-04T02:25:20;4.90;1.00
16154;DHT22;8182;55.648;13.208;2024-02-04T02:27:49;4.90;1.00
16154;DHT22;8182;55.648;13.208;2024-02-04T02:30:16;4.90;1.00
16154;DHT22;8182;55.648;13.208;2024-02-04T02:32:44;4.90;1.00
16154;DHT22;8182;55.648;13.208;2024-02-04T02:35:11;4.80;1.00
16154;DHT22;8182;55.648;13.208;2024-02-04T02:37:46;4.80;1.00
16154;DHT22;8182;55.648;13.208;2024-02-04T02:40:21;4.80;1.00
16154;DHT22;8182;55.648;13.208;2024-02-04T02:42:52;4.90;1.00
16154;DHT22;8182;55.648;13.208;2024-02-04T02:45:20;5.00;1.00
16154;DHT22;8182;55.648;13.208;2024-02-04T02:47:48;5.10;1.00
16154;DHT22;8182;55.648;13.208;2024-02-04T02:50:16;5.10;1.00
16154;DHT22;8182;55.648;13.208;2024-02-04T02:52:43;5.20;1.00
16154;DHT22;8182;55.648;13.208;2024-02-04T02:55:10;5.30;1.00
16154;DHT22;8182;55.648;13.208;2024-02-04T02:57:38;5.20;1.00
16154;DHT22;8182;55.648;13.208;2024-02-04T03:00:06;5.20;1.00
16154;DHT22;8182;55.648;13.208;2024-02-04T03:02:34;5.10;1.00
16154;DHT22;8182;55.648;13.208;2024-02-04T03:05:01;5.10;1.00
16154;DHT22;8182;55.648;13.208;2024-02-04T03:07:28;5.10;1.00
16154;DHT22;8182;55.648;13.208;2024-02-04T03:09:55;5.10;1.00
16154;DHT22;8182;55.648;13.208;2024-02-04T03:12:22;5.10;1.00
16154;DHT22;8182;55.648;13.208;2024-02-04T03:14:50;5.20;1.00
16154;DHT22;8182;55.648;13.208;2024-02-04T03:17:17;5.20;1.00
16154;DHT22;8182;55.648;13.208;2024-02-04T03:19:47;5.20;1.00
16154;DHT22;8182;55.648;13.208;2024-02-04T03:22:14;5.30;1.00
16154;DHT22;8182;55.648;13.208;2024-02-04T03:24:41;5.30;1.00
16154;DHT22;8182;55.648;13.208;2024-02-04T03:27:08;5.30;1.00
16154;DHT22;8182;55.648;13.208;2024-02-04T03:29:35;5.40;1.00
16154;DHT22;8182;55.648;13.208;2024-02-04T03:32:04;5.40;1.00
16154;DHT22;8182;55.648;13.208;2024-02-04T03:34:31;5.40;1.00
16154;DHT22;8182;55.648;13.208;2024-02-04T03:36:58;5.40;1.00
16154;DHT22;8182;55.648;13.208;2024-02-04T03:39:25;5.40;1.00
16154;DHT22;8182;55.648;13.208;2024-02-04T03:41:51;5.40;1.00
16154;DHT22;8182;55.648;13.208;2024-02-04T03:44:18;5.50;1.00
16154;DHT22;8182;55.648;13.208;2024-02-04T03:46:47;5.40;1.00
16154;DHT22;8182;55.648;13.208;2024-02-04T03:49:16;5.40;1.00
16154;DHT22;8182;55.648;13.208;2024-02-04T03:51:43;5.40;1.00
16154;DHT22;8182;55.648;13.208;2024-02-04T03:54:10;5.40;1.00
16154;DHT22;8182;55.648;13.208;2024-02-04T03:56:36;5.40;1.00
16154;DHT22;8182;55.648;13.208;2024-02-04T03:59:03;5.50;1.00
16154;DHT22;8182;55.648;13.208;2024-02-04T04:01:32;5.50;1.00
16154;DHT22;8182;55.648;13.208;2024-02-04T04:03:59;5.50;1.00
16154;DHT22;8182;55.648;13.208;2024-02-04T04:06:27;5.50;1.00
16154;DHT22;8182;55.648;13.208;2024-02-04T04:08:53;5.50;1.00
16154;DHT22;8182;55.648;13.208;2024-02-04T04:11:20;5.50;1.00
16154;DHT22;8182;55.648;13.208;2024-02-04T04:13:48;5.40;1.00
16154;DHT22;8182;55.648;13.208;2024-02-04T04:16:15;5.40;1.00
16154;DHT22;8182;55.648;13.208;2024-02-04T04:18:44;5.40;1.00
16154;DHT22;8182;55.648;13.208;2024-02-04T04:21:11;5.50;1.00
16154;DHT22;8182;55.648;13.208;2024-02-04T04:23:40;5.50;1.00
16154;DHT22;8182;55.648;13.208;2024-02-04T04:26:07;5.50;1.00
16154;DHT22;8182;55.648;13.208;2024-02-04T04:28:34;5.40;1.00
16154;DHT22;8182;55.648;13.208;2024-02-04T04:31:01;5.40;1.00
16154;DHT22;8182;55.648;13.208;2024-02-04T04:33:28;5.40;1.00
16154;DHT22;8182;55.648;13.208;2024-02-04T04:35:55;5.40;1.00
16154;DHT22;8182;55.648;13.208;2024-02-04T04:38:22;5.40;1.00
16154;DHT22;8182;55.648;13.208;2024-02-04T04:40:50;5.40;1.00
16154;DHT22;8182;55.648;13.208;2024-02-04T04:43:17;5.40;1.00
16154;DHT22;8182;55.648;13.208;2024-02-04T04:45:44;5.40;1.00
16154;DHT22;8182;55.648;13.208;2024-02-04T04:48:11;5.40;1.00
16154;DHT22;8182;55.648;13.208;2024-02-04T04:50:38;5.50;1.00
16154;DHT22;8182;55.648;13.208;2024-02-04T04:53:05;5.50;1.00
16154;DHT22;8182;55.648;13.208;2024-02-04T04:55:34;5.50;1.00
16154;DHT22;8182;55.648;13.208;2024-02-04T04:58:03;5.50;1.00
16154;DHT22;8182;55.648;13.208;2024-02-04T05:00:30;5.50;1.00
16154;DHT22;8182;55.648;13.208;2024-02-04T05:02:57;5.50;1.00
16154;DHT22;8182;55.648;13.208;2024-02-04T05:05:23;5.50;1.00
16154;DHT22;8182;55.648;13.208;2024-02-04T05:07:50;5.60;1.00
16154;DHT22;8182;55.648;13.208;2024-02-04T05:10:17;5.60;1.00
16154;DHT22;8182;55.648;13.208;2024-02-04T05:12:44;5.60;1.00
16154;DHT22;8182;55.648;13.208;2024-02-04T05:15:13;5.50;1.00
16154;DHT22;8182;55.648;13.208;2024-02-04T05:17:40;5.50;1.00
16154;DHT22;8182;55.648;13.208;2024-02-04T05:20:07;5.60;1.00
16154;DHT22;8182;55.648;13.208;2024-02-04T05:22:34;5.60;1.00
16154;DHT22;8182;55.648;13.208;2024-02-04T05:25:01;5.60;1.00
16154;DHT22;8182;55.648;13.208;2024-02-04T05:27:30;5.60;1.00
16154;DHT22;8182;55.648;13.208;2024-02-04T05:29:57;5.70;1.00
16154;DHT22;8182;55.648;13.208;2024-02-04T05:32:25;5.70;1.00
16154;DHT22;8182;55.648;13.208;2024-02-04T05:34:52;5.70;1.00
16154;DHT22;8182;55.648;13.208;2024-02-04T05:37:19;5.70;1.00
16154;DHT22;8182;55.648;13.208;2024-02-04T05:39:46;5.70;1.00
16154;DHT22;8182;55.648;13.208;2024-02-04T05:42:13;5.70;1.00
16154;DHT22;8182;55.648;13.208;2024-02-04T05:44:40;5.70;1.00
16154;DHT22;8182;55.648;13.208;2024-02-04T05:47:07;5.60;1.00
16154;DHT22;8182;55.648;13.208;2024-02-04T05:49:35;5.60;1.00
16154;DHT22;8182;55.648;13.208;2024-02-04T05:52:02;5.70;1.00
16154;DHT22;8182;55.648;13.208;2024-02-04T05:54:29;5.70;1.00
16154;DHT22;8182;55.648;13.208;2024-02-04T05:56:56;5.80;1.00
16154;DHT22;8182;55.648;13.208;2024-02-04T05:59:23;5.80;1.00
16154;DHT22;8182;55.648;13.208;2024-02-04T06:01:50;5.80;1.00
16154;DHT22;8182;55.648;13.208;2024-02-04T06:04:17;5.80;1.00
16154;DHT22;8182;55.648;13.208;2024-02-04T06:06:46;5.80;1.00
16154;DHT22;8182;55.648;13.208;2024-02-04T06:09:13;5.70;1.00
16154;DHT22;8182;55.648;13.208;2024-02-04T06:11:40;5.70;1.00
16154;DHT22;8182;55.648;13.208;2024-02-04T06:14:06;5.70;1.00
16154;DHT22;8182;55.648;13.208;2024-02-04T06:16:33;5.80;1.00
16154;DHT22;8182;55.648;13.208;2024-02-04T06:19:00;5.80;1.00
16154;DHT22;8182;55.648;13.208;2024-02-04T06:21:27;5.80;1.00
16154;DHT22;8182;55.648;13.208;2024-02-04T06:23:56;5.80;1.00
16154;DHT22;8182;55.648;13.208;2024-02-04T06:26:23;5.90;1.00
16154;DHT22;8182;55.648;13.208;2024-02-04T06:28:50;5.90;1.00
16154;DHT22;8182;55.648;13.208;2024-02-04T06:31:17;5.90;1.00
16154;DHT22;8182;55.648;13.208;2024-02-04T06:33:44;5.80;1.00
16154;DHT22;8182;55.648;13.208;2024-02-04T06:36:11;5.70;1.00
16154;DHT22;8182;55.648;13.208;2024-02-04T06:38:38;5.70;1.00
16154;DHT22;8182;55.648;13.208;2024-02-04T06:41:07;5.70;1.00
16154;DHT22;8182;55.648;13.208;2024-02-04T06:43:33;5.80;1.00
16154;DHT22;8182;55.648;13.208;2024-02-04T06:46:03;5.90;1.00
16154;DHT22;8182;55.648;13.208;2024-02-04T06:48:30;5.90;1.00
16154;DHT22;8182;55.648;13.208;2024-02-04T06:50:57;5.90;1.00
16154;DHT22;8182;55.648;13.208;2024-02-04T06:53:24;5.90;1.00
16154;DHT22;8182;55.648;13.208;2024-02-04T06:55:51;5.90;1.00
16154;DHT22;8182;55.648;13.208;2024-02-04T06:58:19;5.80;1.00
16154;DHT22;8182;55.648;13.208;2024-02-04T07:00:46;5.80;1.00
16154;DHT22;8182;55.648;13.208;2024-02-04T07:03:13;5.80;1.00
16154;DHT22;8182;55.648;13.208;2024-02-04T07:05:40;5.80;1.00
16154;DHT22;8182;55.648;13.208;2024-02-04T07:08:08;5.90;1.00
16154;DHT22;8182;55.648;13.208;2024-02-04T07:10:35;5.80;1.00
16154;DHT22;8182;55.648;13.208;2024-02-04T07:13:02;5.80;1.00
16154;DHT22;8182;55.648;13.208;2024-02-04T07:15:30;5.70;1.00
16154;DHT22;8182;55.648;13.208;2024-02-04T07:17:57;5.70;1.00
16154;DHT22;8182;55.648;13.208;2024-02-04T07:20:24;5.80;1.00
16154;DHT22;8182;55.648;13.208;2024-02-04T07:22:50;5.80;1.00
16154;DHT22;8182;55.648;13.208;2024-02-04T07:25:17;5.70;1.00
16154;DHT22;8182;55.648;13.208;2024-02-04T07:27:45;5.80;1.00
16154;DHT22;8182;55.648;13.208;2024-02-04T07:30:13;5.80;1.00
16154;DHT22;8182;55.648;13.208;2024-02-04T07:32:41;5.70;1.00
16154;DHT22;8182;55.648;13.208;2024-02-04T07:35:09;5.80;1.00
16154;DHT22;8182;55.648;13.208;2024-02-04T07:37:36;5.90;1.00
16154;DHT22;8182;55.648;13.208;2024-02-04T07:40:04;5.90;1.00
16154;DHT22;8182;55.648;13.208;2024-02-04T07:42:31;6.00;1.00
16154;DHT22;8182;55.648;13.208;2024-02-04T07:44:58;6.00;1.00
16154;DHT22;8182;55.648;13.208;2024-02-04T07:47:27;6.00;1.00
16154;DHT22;8182;55.648;13.208;2024-02-04T07:49:55;6.00;1.00
16154;DHT22;8182;55.648;13.208;2024-02-04T07:52:22;6.00;1.00
16154;DHT22;8182;55.648;13.208;2024-02-04T07:54:48;6.00;1.00
16154;DHT22;8182;55.648;13.208;2024-02-04T07:57:15;5.90;1.00
16154;DHT22;8182;55.648;13.208;2024-02-04T07:59:42;5.90;1.00
16154;DHT22;8182;55.648;13.208;2024-02-04T08:02:09;5.90;1.00
16154;DHT22;8182;55.648;13.208;2024-02-04T08:04:36;6.00;1.00
16154;DHT22;8182;55.648;13.208;2024-02-04T08:07:05;6.00;1.00
16154;DHT22;8182;55.648;13.208;2024-02-04T08:09:32;6.00;1.00
16154;DHT22;8182;55.648;13.208;2024-02-04T08:11:59;6.10;1.00
16154;DHT22;8182;55.648;13.208;2024-02-04T08:14:26;6.10;1.00
16154;DHT22;8182;55.648;13.208;2024-02-04T08:16:53;6.10;1.00
16154;DHT22;8182;55.648;13.208;2024-02-04T08:19:20;6.10;1.00
16154;DHT22;8182;55.648;13.208;2024-02-04T08:21:46;6.20;1.00
16154;DHT22;8182;55.648;13.208;2024-02-04T08:24:15;6.20;1.00
16154;DHT22;8182;55.648;13.208;2024-02-04T08:26:41;6.20;1.00
16154;DHT22;8182;55.648;13.208;2024-02-04T08:29:09;6.20;1.00
16154;DHT22;8182;55.648;13.208;2024-02-04T08:31:36;6.30;1.00
16154;DHT22;8182;55.648;13.208;2024-02-04T08:34:03;6.20;1.00
16154;DHT22;8182;55.648;13.208;2024-02-04T08:36:31;6.10;1.00
16154;DHT22;8182;55.648;13.208;2024-02-04T08:38:58;6.20;1.00
16154;DHT22;8182;55.648;13.208;2024-02-04T08:41:26;6.20;1.00
16154;DHT22;8182;55.648;13.208;2024-02-04T08:43:53;6.30;1.00
16154;DHT22;8182;55.648;13.208;2024-02-04T08:46:20;6.30;1.00
16154;DHT22;8182;55.648;13.208;2024-02-04T08:48:47;6.30;1.00
16154;DHT22;8182;55.648;13.208;2024-02-04T08:51:14;6.30;1.00
16154;DHT22;8182;55.648;13.208;2024-02-04T08:53:41;6.40;1.00
16154;DHT22;8182;55.648;13.208;2024-02-04T08:56:09;6.50;1.00
16154;DHT22;8182;55.648;13.208;2024-02-04T08:58:37;6.50;1.00
16154;DHT22;8182;55.648;13.208;2024-02-04T09:01:04;6.60;1.00
16154;DHT22;8182;55.648;13.208;2024-02-04T09:03:31;6.60;1.00
16154;DHT22;8182;55.648;13.208;2024-02-04T09:05:59;6.60;1.00
16154;DHT22;8182;55.648;13.208;2024-02-04T09:08:26;6.60;1.00
16154;DHT22;8182;55.648;13.208;2024-02-04T09:10:53;6.60;1.00
16154;DHT22;8182;55.648;13.208;2024-02-04T09:13:20;6.60;1.00
16154;DHT22;8182;55.648;13.208;2024-02-04T09:15:48;6.70;1.00
16154;DHT22;8182;55.648;13.208;2024-02-04T09:18:15;6.80;1.00
16154;DHT22;8182;55.648;13.208;2024-02-04T09:20:42;6.80;1.00
16154;DHT22;8182;55.648;13.208;2024-02-04T09:23:09;6.80;1.00
16154;DHT22;8182;55.648;13.208;2024-02-04T09:25:36;6.90;1.00
16154;DHT22;8182;55.648;13.208;2024-02-04T09:28:03;6.90;1.00
16154;DHT22;8182;55.648;13.208;2024-02-04T09:30:30;6.90;1.00
16154;DHT22;8182;55.648;13.208;2024-02-04T09:32:59;6.90;1.00
16154;DHT22;8182;55.648;13.208;2024-02-04T09:35:26;6.80;1.00
16154;DHT22;8182;55.648;13.208;2024-02-04T09:37:53;6.80;1.00
16154;DHT22;8182;55.648;13.208;2024-02-04T09:40:20;6.80;1.00
16154;DHT22;8182;55.648;13.208;2024-02-04T09:42:48;6.90;1.00
16154;DHT22;8182;55.648;13.208;2024-02-04T09:45:15;7.00;1.00
16154;DHT22;8182;55.648;13.208;2024-02-04T09:47:45;7.00;1.00
16154;DHT22;8182;55.648;13.208;2024-02-04T09:50:13;7.10;1.00
16154;DHT22;8182;55.648;13.208;2024-02-04T09:52:40;7.20;1.00
16154;DHT22;8182;55.648;13.208;2024-02-04T09:55:13;7.20;1.00
16154;DHT22;8182;55.648;13.208;2024-02-04T09:57:42;7.20;1.00
16154;DHT22;8182;55.648;13.208;2024-02-04T10:00:11;7.20;1.00
16154;DHT22;8182;55.648;13.208;2024-02-04T10:02:38;7.20;1.00
16154;DHT22;8182;55.648;13.208;2024-02-04T10:05:06;7.20;1.00
16154;DHT22;8182;55.648;13.208;2024-02-04T10:07:36;7.20;1.00
16154;DHT22;8182;55.648;13.208;2024-02-04T10:10:04;7.20;1.00
16154;DHT22;8182;55.648;13.208;2024-02-04T10:12:31;7.30;1.00
16154;DHT22;8182;55.648;13.208;2024-02-04T10:14:59;7.30;1.00
16154;DHT22;8182;55.648;13.208;2024-02-04T10:17:26;7.30;1.00
16154;DHT22;8182;55.648;13.208;2024-02-04T10:19:53;7.30;1.00
16154;DHT22;8182;55.648;13.208;2024-02-04T10:22:20;7.40;1.00
16154;DHT22;8182;55.648;13.208;2024-02-04T10:24:49;7.30;1.00
16154;DHT22;8182;55.648;13.208;2024-02-04T10:27:15;7.30;1.00
16154;DHT22;8182;55.648;13.208;2024-02-04T10:29:43;7.40;1.00
16154;DHT22;8182;55.648;13.208;2024-02-04T10:32:10;7.40;1.00
16154;DHT22;8182;55.648;13.208;2024-02-04T10:34:38;7.40;1.00
16154;DHT22;8182;55.648;13.208;2024-02-04T10:37:05;7.40;1.00
16154;DHT22;8182;55.648;13.208;2024-02-04T10:39:32;7.40;1.00
16154;DHT22;8182;55.648;13.208;2024-02-04T10:42:02;7.40;1.00
16154;DHT22;8182;55.648;13.208;2024-02-04T10:44:31;7.50;1.00
16154;DHT22;8182;55.648;13.208;2024-02-04T10:47:05;7.60;1.00
16154;DHT22;8182;55.648;13.208;2024-02-04T10:49:37;7.50;1.00
16154;DHT22;8182;55.648;13.208;2024-02-04T10:52:07;7.60;1.00
16154;DHT22;8182;55.648;13.208;2024-02-04T10:54:35;7.50;1.00
16154;DHT22;8182;55.648;13.208;2024-02-04T10:57:11;7.50;1.00
16154;DHT22;8182;55.648;13.208;2024-02-04T10:59:38;7.50;1.00
16154;DHT22;8182;55.648;13.208;2024-02-04T11:02:06;7.50;1.00
16154;DHT22;8182;55.648;13.208;2024-02-04T11:04:33;7.50;1.00
16154;DHT22;8182;55.648;13.208;2024-02-04T11:07:01;7.40;1.00
16154;DHT22;8182;55.648;13.208;2024-02-04T11:09:29;7.40;1.00
16154;DHT22;8182;55.648;13.208;2024-02-04T11:11:58;7.40;1.00
16154;DHT22;8182;55.648;13.208;2024-02-04T11:14:27;7.30;1.00
16154;DHT22;8182;55.648;13.208;2024-02-04T11:17:23;7.30;1.00
16154;DHT22;8182;55.648;13.208;2024-02-04T11:20:05;7.30;1.00
16154;DHT22;8182;55.648;13.208;2024-02-04T11:22:53;7.40;1.00
16154;DHT22;8182;55.648;13.208;2024-02-04T11:25:43;7.40;1.00
16154;DHT22;8182;55.648;13.208;2024-02-04T11:28:11;7.40;1.00
16154;DHT22;8182;55.648;13.208;2024-02-04T11:30:40;7.40;1.00
16154;DHT22;8182;55.648;13.208;2024-02-04T11:33:07;7.40;1.00
16154;DHT22;8182;55.648;13.208;2024-02-04T11:35:34;7.50;1.00
16154;DHT22;8182;55.648;13.208;2024-02-04T11:38:01;7.50;1.00
16154;DHT22;8182;55.648;13.208;2024-02-04T11:40:34;7.50;1.00
16154;DHT22;8182;55.648;13.208;2024-02-04T11:43:05;7.50;1.00
16154;DHT22;8182;55.648;13.208;2024-02-04T11:45:32;7.50;1.00
16154;DHT22;8182;55.648;13.208;2024-02-04T11:48:02;7.40;1.00
16154;DHT22;8182;55.648;13.208;2024-02-04T11:50:30;7.40;1.00
16154;DHT22;8182;55.648;13.208;2024-02-04T11:53:07;7.40;1.00
16154;DHT22;8182;55.648;13.208;2024-02-04T11:55:35;7.40;1.00
16154;DHT22;8182;55.648;13.208;2024-02-04T11:58:03;7.50;1.00
16154;DHT22;8182;55.648;13.208;2024-02-04T12:00:32;7.60;1.00
16154;DHT22;8182;55.648;13.208;2024-02-04T12:03:04;7.50;1.00
16154;DHT22;8182;55.648;13.208;2024-02-04T12:05:32;7.50;1.00
16154;DHT22;8182;55.648;13.208;2024-02-04T12:08:01;7.50;1.00
16154;DHT22;8182;55.648;13.208;2024-02-04T12:10:29;7.50;1.00
16154;DHT22;8182;55.648;13.208;2024-02-04T12:12:58;7.50;1.00
16154;DHT22;8182;55.648;13.208;2024-02-04T12:15:25;7.50;1.00
16154;DHT22;8182;55.648;13.208;2024-02-04T12:17:52;7.40;1.00
16154;DHT22;8182;55.648;13.208;2024-02-04T12:20:20;7.40;1.00
16154;DHT22;8182;55.648;13.208;2024-02-04T12:22:48;7.40;1.00
16154;DHT22;8182;55.648;13.208;2024-02-04T12:25:16;7.50;1.00
16154;DHT22;8182;55.648;13.208;2024-02-04T12:27:44;7.50;1.00
16154;DHT22;8182;55.648;13.208;2024-02-04T12:30:13;7.50;1.00
16154;DHT22;8182;55.648;13.208;2024-02-04T12:32:41;7.60;1.00
16154;DHT22;8182;55.648;13.208;2024-02-04T12:35:08;7.40;1.00
16154;DHT22;8182;55.648;13.208;2024-02-04T12:37:51;7.40;1.00
16154;DHT22;8182;55.648;13.208;2024-02-04T12:40:21;7.50;1.00
16154;DHT22;8182;55.648;13.208;2024-02-04T12:42:53;7.50;1.00
16154;DHT22;8182;55.648;13.208;2024-02-04T12:45:20;7.50;1.00
16154;DHT22;8182;55.648;13.208;2024-02-04T12:47:49;7.60;1.00
16154;DHT22;8182;55.648;13.208;2024-02-04T12:50:16;7.60;1.00
16154;DHT22;8182;55.648;13.208;2024-02-04T12:52:44;7.70;1.00
16154;DHT22;8182;55.648;13.208;2024-02-04T12:55:22;7.70;1.00
16154;DHT22;8182;55.648;13.208;2024-02-04T12:57:50;7.70;1.00
16154;DHT22;8182;55.648;13.208;2024-02-04T13:00:18;7.80;1.00
16154;DHT22;8182;55.648;13.208;2024-02-04T13:02:48;7.70;1.00
16154;DHT22;8182;55.648;13.208;2024-02-04T13:05:22;7.70;1.00
16154;DHT22;8182;55.648;13.208;2024-02-04T13:07:52;7.70;1.00
16154;DHT22;8182;55.648;13.208;2024-02-04T13:10:23;7.60;1.00
16154;DHT22;8182;55.648;13.208;2024-02-04T13:13:00;7.60;1.00
16154;DHT22;8182;55.648;13.208;2024-02-04T13:15:28;7.50;1.00
16154;DHT22;8182;55.648;13.208;2024-02-04T13:17:55;7.60;1.00
16154;DHT22;8182;55.648;13.208;2024-02-04T13:20:22;7.60;1.00
16154;DHT22;8182;55.648;13.208;2024-02-04T13:22:49;7.60;1.00
16154;DHT22;8182;55.648;13.208;2024-02-04T13:25:16;7.60;1.00
16154;DHT22;8182;55.648;13.208;2024-02-04T13:27:45;7.60;1.00
16154;DHT22;8182;55.648;13.208;2024-02-04T13:30:12;7.60;1.00
16154;DHT22;8182;55.648;13.208;2024-02-04T13:32:39;7.60;1.00
16154;DHT22;8182;55.648;13.208;2024-02-04T13:35:10;7.60;1.00
16154;DHT22;8182;55.648;13.208;2024-02-04T13:37:39;7.70;1.00
16154;DHT22;8182;55.648;13.208;2024-02-04T13:40:07;7.60;1.00
16154;DHT22;8182;55.648;13.208;2024-02-04T13:42:35;7.60;1.00
16154;DHT22;8182;55.648;13.208;2024-02-04T13:45:05;7.60;1.00
16154;DHT22;8182;55.648;13.208;2024-02-04T13:47:32;7.60;1.00
16154;DHT22;8182;55.648;13.208;2024-02-04T13:50:02;7.50;1.00
16154;DHT22;8182;55.648;13.208;2024-02-04T13:52:29;7.60;1.00
16154;DHT22;8182;55.648;13.208;2024-02-04T13:54:56;7.60;1.00
16154;DHT22;8182;55.648;13.208;2024-02-04T13:57:23;7.60;1.00
16154;DHT22;8182;55.648;13.208;2024-02-04T13:59:50;7.60;1.00
16154;DHT22;8182;55.648;13.208;2024-02-04T14:02:18;7.50;1.00
16154;DHT22;8182;55.648;13.208;2024-02-04T14:04:45;7.50;1.00
16154;DHT22;8182;55.648;13.208;2024-02-04T14:07:12;7.50;1.00
16154;DHT22;8182;55.648;13.208;2024-02-04T14:09:39;7.50;1.00
16154;DHT22;8182;55.648;13.208;2024-02-04T14:12:07;7.50;1.00
16154;DHT22;8182;55.648;13.208;2024-02-04T14:14:34;7.50;1.00
16154;DHT22;8182;55.648;13.208;2024-02-04T14:17:01;7.50;1.00
16154;DHT22;8182;55.648;13.208;2024-02-04T14:19:29;7.40;1.00
16154;DHT22;8182;55.648;13.208;2024-02-04T14:21:56;7.40;1.00
16154;DHT22;8182;55.648;13.208;2024-02-04T14:24:23;7.30;1.00
16154;DHT22;8182;55.648;13.208;2024-02-04T14:26:56;7.50;1.00
16154;DHT22;8182;55.648;13.208;2024-02-04T14:29:23;7.50;1.00
16154;DHT22;8182;55.648;13.208;2024-02-04T14:31:50;7.50;1.00
16154;DHT22;8182;55.648;13.208;2024-02-04T14:34:16;7.50;1.00
16154;DHT22;8182;55.648;13.208;2024-02-04T14:36:45;7.50;1.00
16154;DHT22;8182;55.648;13.208;2024-02-04T14:39:12;7.50;1.00
16154;DHT22;8182;55.648;13.208;2024-02-04T14:41:40;7.40;1.00
16154;DHT22;8182;55.648;13.208;2024-02-04T14:44:07;7.30;1.00
16154;DHT22;8182;55.648;13.208;2024-02-04T14:46:36;7.20;1.00
16154;DHT22;8182;55.648;13.208;2024-02-04T14:49:03;7.10;1.00
16154;DHT22;8182;55.648;13.208;2024-02-04T14:51:31;7.10;1.00
16154;DHT22;8182;55.648;13.208;2024-02-04T14:53:59;7.20;1.00
16154;DHT22;8182;55.648;13.208;2024-02-04T14:56:26;7.20;1.00
16154;DHT22;8182;55.648;13.208;2024-02-04T14:58:53;7.30;1.00
16154;DHT22;8182;55.648;13.208;2024-02-04T15:01:20;7.30;1.00
16154;DHT22;8182;55.648;13.208;2024-02-04T15:03:52;7.30;1.00
16154;DHT22;8182;55.648;13.208;2024-02-04T15:06:20;7.30;1.00
16154;DHT22;8182;55.648;13.208;2024-02-04T15:08:46;7.30;1.00
16154;DHT22;8182;55.648;13.208;2024-02-04T15:11:15;7.30;1.00
16154;DHT22;8182;55.648;13.208;2024-02-04T15:13:45;7.20;1.00
16154;DHT22;8182;55.648;13.208;2024-02-04T15:16:13;7.10;1.00
16154;DHT22;8182;55.648;13.208;2024-02-04T15:18:40;7.10;1.00
16154;DHT22;8182;55.648;13.208;2024-02-04T15:21:08;7.10;1.00
16154;DHT22;8182;55.648;13.208;2024-02-04T15:23:36;7.20;1.00
16154;DHT22;8182;55.648;13.208;2024-02-04T15:26:04;7.20;1.00
16154;DHT22;8182;55.648;13.208;2024-02-04T15:28:34;7.10;1.00
16154;DHT22;8182;55.648;13.208;2024-02-04T15:31:02;7.00;1.00
16154;DHT22;8182;55.648;13.208;2024-02-04T15:33:29;7.00;1.00
16154;DHT22;8182;55.648;13.208;2024-02-04T15:36:05;7.10;1.00
16154;DHT22;8182;55.648;13.208;2024-02-04T15:38:32;7.10;1.00
16154;DHT22;8182;55.648;13.208;2024-02-04T15:40:59;7.10;1.00
16154;DHT22;8182;55.648;13.208;2024-02-04T15:43:26;7.10;1.00
16154;DHT22;8182;55.648;13.208;2024-02-04T15:45:54;7.10;1.00
16154;DHT22;8182;55.648;13.208;2024-02-04T15:48:27;7.00;1.00
16154;DHT22;8182;55.648;13.208;2024-02-04T15:50:55;6.80;1.00
16154;DHT22;8182;55.648;13.208;2024-02-04T15:53:27;6.80;1.00
16154;DHT22;8182;55.648;13.208;2024-02-04T15:55:54;6.80;1.00
16154;DHT22;8182;55.648;13.208;2024-02-04T15:58:22;6.80;1.00
16154;DHT22;8182;55.648;13.208;2024-02-04T16:01:01;6.80;1.00
16154;DHT22;8182;55.648;13.208;2024-02-04T16:03:34;6.80;1.00
16154;DHT22;8182;55.648;13.208;2024-02-04T16:06:02;6.70;1.00
16154;DHT22;8182;55.648;13.208;2024-02-04T16:08:29;6.60;1.00